sensor_id;sensor_type;location;lat;lon;timestamp;P1;durP1;ratioP1;P2;durP2;ratioP2
48203;SDS011;33994;50.998;5.864;2022-07-25T00:02:32;7.75;;;5.50;;
48203;SDS011;33994;50.998;5.864;2022-07-25T00:05:37;10.15;;;6.30;;
48203;SDS011;33994;50.998;5.864;2022-07-25T00:08:41;9.82;;;5.97;;
48203;SDS011;33994;50.998;5.864;2022-07-25T00:11:45;9.60;;;5.95;;
48203;SDS011;33994;50.998;5.864;2022-07-25T00:14:49;9.70;;;6.10;;
48203;SDS011;33994;50.998;5.864;2022-07-25T00:17:54;9.38;;;6.38;;
48203;SDS011;33994;50.998;5.864;2022-07-25T00:20:58;10.38;;;5.47;;
48203;SDS011;33994;50.998;5.864;2022-07-25T00:24:03;7.63;;;5.40;;
48203;SDS011;33994;50.998;5.864;2022-07-25T00:27:07;10.20;;;5.97;;
48203;SDS011;33994;50.998;5.864;2022-07-25T00:30:12;7.45;;;5.60;;
48203;SDS011;33994;50.998;5.864;2022-07-25T00:33:16;10.63;;;5.75;;
48203;SDS011;33994;50.998;5.864;2022-07-25T00:36:21;7.70;;;5.50;;
48203;SDS011;33994;50.998;5.864;2022-07-25T00:39:25;7.72;;;5.13;;
48203;SDS011;33994;50.998;5.864;2022-07-25T00:42:29;7.93;;;5.40;;
48203;SDS011;33994;50.998;5.864;2022-07-25T00:45:34;8.32;;;5.90;;
48203;SDS011;33994;50.998;5.864;2022-07-25T00:48:39;8.35;;;5.85;;
48203;SDS011;33994;50.998;5.864;2022-07-25T00:51:43;10.32;;;5.55;;
48203;SDS011;33994;50.998;5.864;2022-07-25T00:54:47;6.53;;;5.43;;
48203;SDS011;33994;50.998;5.864;2022-07-25T00:57:52;8.02;;;5.47;;
48203;SDS011;33994;50.998;5.864;2022-07-25T01:00:56;7.45;;;5.47;;
48203;SDS011;33994;50.998;5.864;2022-07-25T01:04:01;8.38;;;5.53;;
48203;SDS011;33994;50.998;5.864;2022-07-25T01:07:06;7.18;;;5.30;;
48203;SDS011;33994;50.998;5.864;2022-07-25T01:10:11;7.38;;;4.97;;
48203;SDS011;33994;50.998;5.864;2022-07-25T01:13:15;6.85;;;4.93;;
48203;SDS011;33994;50.998;5.864;2022-07-25T01:16:20;10.95;;;5.95;;
48203;SDS011;33994;50.998;5.864;2022-07-25T01:19:24;7.43;;;4.88;;
48203;SDS011;33994;50.998;5.864;2022-07-25T01:22:29;7.07;;;5.40;;
48203;SDS011;33994;50.998;5.864;2022-07-25T01:25:33;12.18;;;6.13;;
48203;SDS011;33994;50.998;5.864;2022-07-25T01:28:38;8.95;;;5.22;;
48203;SDS011;33994;50.998;5.864;2022-07-25T01:31:42;6.82;;;5.22;;
48203;SDS011;33994;50.998;5.864;2022-07-25T01:34:46;7.07;;;5.32;;
48203;SDS011;33994;50.998;5.864;2022-07-25T01:37:54;6.20;;;5.13;;
48203;SDS011;33994;50.998;5.864;2022-07-25T01:40:58;6.05;;;4.90;;
48203;SDS011;33994;50.998;5.864;2022-07-25T01:44:03;6.28;;;4.85;;
48203;SDS011;33994;50.998;5.864;2022-07-25T01:47:07;6.40;;;5.07;;
48203;SDS011;33994;50.998;5.864;2022-07-25T01:50:12;7.57;;;5.07;;
48203;SDS011;33994;50.998;5.864;2022-07-25T01:53:16;10.40;;;5.40;;
48203;SDS011;33994;50.998;5.864;2022-07-25T01:56:20;9.68;;;6.38;;
48203;SDS011;33994;50.998;5.864;2022-07-25T01:59:25;6.63;;;5.40;;
48203;SDS011;33994;50.998;5.864;2022-07-25T02:02:29;8.23;;;5.22;;
48203;SDS011;33994;50.998;5.864;2022-07-25T02:05:33;6.80;;;5.18;;
48203;SDS011;33994;50.998;5.864;2022-07-25T02:08:37;7.15;;;4.85;;
48203;SDS011;33994;50.998;5.864;2022-07-25T02:11:42;8.70;;;5.20;;
48203;SDS011;33994;50.998;5.864;2022-07-25T02:14:46;5.72;;;5.10;;
48203;SDS011;33994;50.998;5.864;2022-07-25T02:17:51;9.60;;;6.05;;
48203;SDS011;33994;50.998;5.864;2022-07-25T02:20:55;7.90;;;4.70;;
48203;SDS011;33994;50.998;5.864;2022-07-25T02:24:00;5.93;;;5.22;;
48203;SDS011;33994;50.998;5.864;2022-07-25T02:27:04;9.57;;;6.25;;
48203;SDS011;33994;50.998;5.864;2022-07-25T02:30:09;6.60;;;4.85;;
48203;SDS011;33994;50.998;5.864;2022-07-25T02:33:14;6.25;;;4.88;;
48203;SDS011;33994;50.998;5.864;2022-07-25T02:36:19;6.38;;;4.72;;
48203;SDS011;33994;50.998;5.864;2022-07-25T02:39:23;7.28;;;4.90;;
48203;SDS011;33994;50.998;5.864;2022-07-25T02:42:28;7.13;;;5.30;;
48203;SDS011;33994;50.998;5.864;2022-07-25T02:45:32;6.65;;;5.00;;
48203;SDS011;33994;50.998;5.864;2022-07-25T02:48:37;7.00;;;5.03;;
48203;SDS011;33994;50.998;5.864;2022-07-25T02:51:41;8.38;;;5.25;;
48203;SDS011;33994;50.998;5.864;2022-07-25T02:54:45;8.32;;;5.60;;
48203;SDS011;33994;50.998;5.864;2022-07-25T02:57:50;8.07;;;5.13;;
48203;SDS011;33994;50.998;5.864;2022-07-25T03:00:54;8.75;;;5.13;;
48203;SDS011;33994;50.998;5.864;2022-07-25T03:03:59;7.45;;;5.65;;
48203;SDS011;33994;50.998;5.864;2022-07-25T03:07:03;6.07;;;5.00;;
48203;SDS011;33994;50.998;5.864;2022-07-25T03:10:09;8.05;;;5.07;;
48203;SDS011;33994;50.998;5.864;2022-07-25T03:16:20;7.30;;;4.85;;
48203;SDS011;33994;50.998;5.864;2022-07-25T03:19:24;7.20;;;5.60;;
48203;SDS011;33994;50.998;5.864;2022-07-25T03:22:29;10.68;;;5.43;;
48203;SDS011;33994;50.998;5.864;2022-07-25T03:25:33;8.65;;;5.28;;
48203;SDS011;33994;50.998;5.864;2022-07-25T03:28:37;7.97;;;5.80;;
48203;SDS011;33994;50.998;5.864;2022-07-25T03:31:42;9.95;;;5.60;;
48203;SDS011;33994;50.998;5.864;2022-07-25T03:34:47;9.57;;;6.15;;
48203;SDS011;33994;50.998;5.864;2022-07-25T03:37:51;9.80;;;6.60;;
48203;SDS011;33994;50.998;5.864;2022-07-25T03:40:56;8.65;;;6.63;;
48203;SDS011;33994;50.998;5.864;2022-07-25T03:44:00;10.35;;;6.70;;
48203;SDS011;33994;50.998;5.864;2022-07-25T03:47:05;8.15;;;5.57;;
48203;SDS011;33994;50.998;5.864;2022-07-25T03:50:09;8.40;;;5.88;;
48203;SDS011;33994;50.998;5.864;2022-07-25T03:53:14;10.40;;;6.13;;
48203;SDS011;33994;50.998;5.864;2022-07-25T03:56:19;8.20;;;5.82;;
48203;SDS011;33994;50.998;5.864;2022-07-25T03:59:23;8.05;;;5.28;;
48203;SDS011;33994;50.998;5.864;2022-07-25T04:02:28;7.93;;;6.20;;
48203;SDS011;33994;50.998;5.864;2022-07-25T04:05:32;8.18;;;5.93;;
48203;SDS011;33994;50.998;5.864;2022-07-25T04:08:36;8.25;;;5.85;;
48203;SDS011;33994;50.998;5.864;2022-07-25T04:11:41;17.75;;;6.53;;
48203;SDS011;33994;50.998;5.864;2022-07-25T04:14:45;8.07;;;5.90;;
48203;SDS011;33994;50.998;5.864;2022-07-25T04:17:50;10.68;;;6.45;;
48203;SDS011;33994;50.998;5.864;2022-07-25T04:20:54;7.80;;;5.68;;
48203;SDS011;33994;50.998;5.864;2022-07-25T04:23:59;9.15;;;6.60;;
48203;SDS011;33994;50.998;5.864;2022-07-25T04:27:03;9.05;;;5.78;;
48203;SDS011;33994;50.998;5.864;2022-07-25T04:30:08;10.65;;;6.60;;
48203;SDS011;33994;50.998;5.864;2022-07-25T04:33:14;10.30;;;6.40;;
48203;SDS011;33994;50.998;5.864;2022-07-25T04:36:19;11.00;;;6.30;;
48203;SDS011;33994;50.998;5.864;2022-07-25T04:39:23;10.45;;;6.28;;
48203;SDS011;33994;50.998;5.864;2022-07-25T04:42:28;13.25;;;6.45;;
48203;SDS011;33994;50.998;5.864;2022-07-25T04:45:32;10.05;;;6.30;;
48203;SDS011;33994;50.998;5.864;2022-07-25T04:48:36;10.93;;;6.70;;
48203;SDS011;33994;50.998;5.864;2022-07-25T04:51:41;10.50;;;6.43;;
48203;SDS011;33994;50.998;5.864;2022-07-25T04:54:45;13.10;;;7.07;;
48203;SDS011;33994;50.998;5.864;2022-07-25T04:57:49;12.77;;;7.65;;
48203;SDS011;33994;50.998;5.864;2022-07-25T05:00:54;14.45;;;6.95;;
48203;SDS011;33994;50.998;5.864;2022-07-25T05:03:58;15.05;;;7.45;;
48203;SDS011;33994;50.998;5.864;2022-07-25T05:07:03;12.90;;;7.47;;
48203;SDS011;33994;50.998;5.864;2022-07-25T05:10:07;17.02;;;8.38;;
48203;SDS011;33994;50.998;5.864;2022-07-25T05:13:12;12.68;;;7.05;;
48203;SDS011;33994;50.998;5.864;2022-07-25T05:16:17;13.63;;;7.13;;
48203;SDS011;33994;50.998;5.864;2022-07-25T05:19:21;11.80;;;7.03;;
48203;SDS011;33994;50.998;5.864;2022-07-25T05:22:26;13.70;;;7.60;;
48203;SDS011;33994;50.998;5.864;2022-07-25T05:25:31;13.15;;;7.30;;
48203;SDS011;33994;50.998;5.864;2022-07-25T05:28:35;12.48;;;7.28;;
48203;SDS011;33994;50.998;5.864;2022-07-25T05:31:40;14.85;;;7.45;;
48203;SDS011;33994;50.998;5.864;2022-07-25T05:34:46;12.48;;;7.15;;
48203;SDS011;33994;50.998;5.864;2022-07-25T05:37:51;12.18;;;6.50;;
48203;SDS011;33994;50.998;5.864;2022-07-25T05:40:58;12.60;;;6.10;;
48203;SDS011;33994;50.998;5.864;2022-07-25T05:44:03;9.65;;;6.30;;
48203;SDS011;33994;50.998;5.864;2022-07-25T05:47:08;12.48;;;5.68;;
48203;SDS011;33994;50.998;5.864;2022-07-25T05:50:13;14.23;;;6.68;;
48203;SDS011;33994;50.998;5.864;2022-07-25T05:53:18;9.55;;;6.15;;
48203;SDS011;33994;50.998;5.864;2022-07-25T05:56:22;10.50;;;6.05;;
48203;SDS011;33994;50.998;5.864;2022-07-25T05:59:29;7.07;;;5.07;;
48203;SDS011;33994;50.998;5.864;2022-07-25T06:02:33;11.60;;;5.97;;
48203;SDS011;33994;50.998;5.864;2022-07-25T06:05:37;8.30;;;5.40;;
48203;SDS011;33994;50.998;5.864;2022-07-25T06:08:42;7.95;;;4.95;;
48203;SDS011;33994;50.998;5.864;2022-07-25T06:11:48;11.20;;;5.90;;
48203;SDS011;33994;50.998;5.864;2022-07-25T06:14:53;17.40;;;6.63;;
48203;SDS011;33994;50.998;5.864;2022-07-25T06:17:57;8.18;;;5.43;;
48203;SDS011;33994;50.998;5.864;2022-07-25T06:21:01;12.13;;;6.65;;
48203;SDS011;33994;50.998;5.864;2022-07-25T06:24:06;8.77;;;5.68;;
48203;SDS011;33994;50.998;5.864;2022-07-25T06:27:11;11.00;;;5.55;;
48203;SDS011;33994;50.998;5.864;2022-07-25T06:30:15;9.52;;;5.47;;
48203;SDS011;33994;50.998;5.864;2022-07-25T06:33:20;10.23;;;5.50;;
48203;SDS011;33994;50.998;5.864;2022-07-25T06:36:24;8.48;;;5.80;;
48203;SDS011;33994;50.998;5.864;2022-07-25T06:39:30;10.80;;;5.00;;
48203;SDS011;33994;50.998;5.864;2022-07-25T06:42:38;8.98;;;5.57;;
48203;SDS011;33994;50.998;5.864;2022-07-25T06:45:47;8.32;;;5.20;;
48203;SDS011;33994;50.998;5.864;2022-07-25T06:48:52;8.68;;;5.25;;
48203;SDS011;33994;50.998;5.864;2022-07-25T06:51:57;4.95;;;4.32;;
48203;SDS011;33994;50.998;5.864;2022-07-25T06:55:03;9.52;;;4.70;;
48203;SDS011;33994;50.998;5.864;2022-07-25T06:58:09;8.85;;;4.68;;
48203;SDS011;33994;50.998;5.864;2022-07-25T07:01:14;8.25;;;5.35;;
48203;SDS011;33994;50.998;5.864;2022-07-25T07:04:19;9.07;;;4.88;;
48203;SDS011;33994;50.998;5.864;2022-07-25T07:07:25;8.90;;;5.00;;
48203;SDS011;33994;50.998;5.864;2022-07-25T07:10:30;9.57;;;5.18;;
48203;SDS011;33994;50.998;5.864;2022-07-25T07:13:35;6.65;;;4.80;;
48203;SDS011;33994;50.998;5.864;2022-07-25T07:16:40;7.00;;;5.22;;
48203;SDS011;33994;50.998;5.864;2022-07-25T07:19:44;11.52;;;5.65;;
48203;SDS011;33994;50.998;5.864;2022-07-25T07:22:49;8.23;;;5.00;;
48203;SDS011;33994;50.998;5.864;2022-07-25T07:25:53;7.47;;;4.97;;
48203;SDS011;33994;50.998;5.864;2022-07-25T07:28:58;7.45;;;4.88;;
48203;SDS011;33994;50.998;5.864;2022-07-25T07:32:04;6.50;;;4.50;;
48203;SDS011;33994;50.998;5.864;2022-07-25T07:35:10;7.13;;;4.32;;
48203;SDS011;33994;50.998;5.864;2022-07-25T07:38:18;5.07;;;4.15;;
48203;SDS011;33994;50.998;5.864;2022-07-25T07:41:24;6.18;;;4.03;;
48203;SDS011;33994;50.998;5.864;2022-07-25T07:44:28;7.75;;;4.10;;
48203;SDS011;33994;50.998;5.864;2022-07-25T07:47:33;6.63;;;3.50;;
48203;SDS011;33994;50.998;5.864;2022-07-25T07:50:39;7.43;;;3.70;;
48203;SDS011;33994;50.998;5.864;2022-07-25T07:53:44;6.95;;;3.95;;
48203;SDS011;33994;50.998;5.864;2022-07-25T07:57:06;6.20;;;3.50;;
48203;SDS011;33994;50.998;5.864;2022-07-25T08:00:11;15.82;;;4.20;;
48203;SDS011;33994;50.998;5.864;2022-07-25T08:03:20;8.48;;;3.65;;
48203;SDS011;33994;50.998;5.864;2022-07-25T08:06:24;5.22;;;3.40;;
48203;SDS011;33994;50.998;5.864;2022-07-25T08:09:30;3.78;;;3.33;;
48203;SDS011;33994;50.998;5.864;2022-07-25T08:12:38;5.72;;;3.40;;
48203;SDS011;33994;50.998;5.864;2022-07-25T08:15:45;5.45;;;3.60;;
48203;SDS011;33994;50.998;5.864;2022-07-25T08:18:53;4.63;;;3.28;;
48203;SDS011;33994;50.998;5.864;2022-07-25T08:21:57;5.00;;;2.75;;
48203;SDS011;33994;50.998;5.864;2022-07-25T08:25:02;16.08;;;4.38;;
48203;SDS011;33994;50.998;5.864;2022-07-25T08:28:06;11.27;;;3.83;;
48203;SDS011;33994;50.998;5.864;2022-07-25T08:31:11;5.68;;;2.83;;
48203;SDS011;33994;50.998;5.864;2022-07-25T08:34:16;4.78;;;2.83;;
48203;SDS011;33994;50.998;5.864;2022-07-25T08:37:21;4.05;;;2.70;;
48203;SDS011;33994;50.998;5.864;2022-07-25T08:40:26;4.95;;;2.33;;
48203;SDS011;33994;50.998;5.864;2022-07-25T08:43:31;5.28;;;2.53;;
48203;SDS011;33994;50.998;5.864;2022-07-25T08:46:39;5.95;;;3.35;;
48203;SDS011;33994;50.998;5.864;2022-07-25T08:49:44;6.50;;;2.67;;
48203;SDS011;33994;50.998;5.864;2022-07-25T08:52:49;5.75;;;2.67;;
48203;SDS011;33994;50.998;5.864;2022-07-25T08:55:54;4.57;;;2.60;;
48203;SDS011;33994;50.998;5.864;2022-07-25T08:58:59;9.50;;;2.55;;
48203;SDS011;33994;50.998;5.864;2022-07-25T09:02:03;3.60;;;2.10;;
48203;SDS011;33994;50.998;5.864;2022-07-25T09:05:09;4.50;;;2.47;;
48203;SDS011;33994;50.998;5.864;2022-07-25T09:08:15;5.55;;;2.35;;
48203;SDS011;33994;50.998;5.864;2022-07-25T09:14:41;7.13;;;2.95;;
48203;SDS011;33994;50.998;5.864;2022-07-25T09:17:50;3.67;;;2.08;;
48203;SDS011;33994;50.998;5.864;2022-07-25T09:20:56;7.47;;;2.58;;
48203;SDS011;33994;50.998;5.864;2022-07-25T09:27:14;8.68;;;3.08;;
48203;SDS011;33994;50.998;5.864;2022-07-25T09:30:19;4.20;;;2.35;;
48203;SDS011;33994;50.998;5.864;2022-07-25T09:33:23;5.65;;;2.25;;
48203;SDS011;33994;50.998;5.864;2022-07-25T09:36:29;4.82;;;2.80;;
48203;SDS011;33994;50.998;5.864;2022-07-25T09:39:34;4.28;;;2.40;;
48203;SDS011;33994;50.998;5.864;2022-07-25T09:42:48;6.47;;;2.97;;
48203;SDS011;33994;50.998;5.864;2022-07-25T09:45:54;6.57;;;2.47;;
48203;SDS011;33994;50.998;5.864;2022-07-25T09:49:00;3.72;;;2.03;;
48203;SDS011;33994;50.998;5.864;2022-07-25T09:52:05;6.63;;;2.20;;
48203;SDS011;33994;50.998;5.864;2022-07-25T09:55:10;5.97;;;2.10;;
48203;SDS011;33994;50.998;5.864;2022-07-25T09:58:16;3.20;;;1.50;;
48203;SDS011;33994;50.998;5.864;2022-07-25T10:01:21;5.82;;;1.90;;
48203;SDS011;33994;50.998;5.864;2022-07-25T10:04:37;6.35;;;2.40;;
48203;SDS011;33994;50.998;5.864;2022-07-25T10:07:52;3.40;;;1.98;;
48203;SDS011;33994;50.998;5.864;2022-07-25T10:10:57;5.70;;;1.73;;
48203;SDS011;33994;50.998;5.864;2022-07-25T10:14:07;5.70;;;2.45;;
48203;SDS011;33994;50.998;5.864;2022-07-25T10:17:19;5.97;;;1.95;;
48203;SDS011;33994;50.998;5.864;2022-07-25T10:20:26;3.30;;;2.08;;
48203;SDS011;33994;50.998;5.864;2022-07-25T10:23:31;4.15;;;2.30;;
48203;SDS011;33994;50.998;5.864;2022-07-25T10:26:35;4.25;;;2.33;;
48203;SDS011;33994;50.998;5.864;2022-07-25T10:29:41;15.57;;;3.08;;
48203;SDS011;33994;50.998;5.864;2022-07-25T10:32:59;3.88;;;1.73;;
48203;SDS011;33994;50.998;5.864;2022-07-25T10:36:08;2.83;;;1.67;;
48203;SDS011;33994;50.998;5.864;2022-07-25T10:39:14;5.97;;;1.90;;
48203;SDS011;33994;50.998;5.864;2022-07-25T10:42:21;6.80;;;1.98;;
48203;SDS011;33994;50.998;5.864;2022-07-25T10:45:32;4.75;;;1.80;;
48203;SDS011;33994;50.998;5.864;2022-07-25T10:48:41;8.07;;;1.88;;
48203;SDS011;33994;50.998;5.864;2022-07-25T10:51:56;6.93;;;1.75;;
48203;SDS011;33994;50.998;5.864;2022-07-25T10:55:05;3.75;;;2.08;;
48203;SDS011;33994;50.998;5.864;2022-07-25T10:58:10;5.32;;;1.90;;
48203;SDS011;33994;50.998;5.864;2022-07-25T11:01:36;6.05;;;1.95;;
48203;SDS011;33994;50.998;5.864;2022-07-25T11:04:39;3.97;;;1.80;;
48203;SDS011;33994;50.998;5.864;2022-07-25T11:07:50;3.60;;;1.60;;
48203;SDS011;33994;50.998;5.864;2022-07-25T11:10:55;7.57;;;1.50;;
48203;SDS011;33994;50.998;5.864;2022-07-25T11:14:00;4.18;;;1.60;;
48203;SDS011;33994;50.998;5.864;2022-07-25T11:20:25;4.45;;;1.70;;
48203;SDS011;33994;50.998;5.864;2022-07-25T11:23:29;4.38;;;1.88;;
48203;SDS011;33994;50.998;5.864;2022-07-25T11:26:42;4.88;;;1.60;;
48203;SDS011;33994;50.998;5.864;2022-07-25T11:29:47;6.32;;;1.52;;
48203;SDS011;33994;50.998;5.864;2022-07-25T11:32:53;4.18;;;1.50;;
48203;SDS011;33994;50.998;5.864;2022-07-25T11:36:03;2.53;;;1.20;;
48203;SDS011;33994;50.998;5.864;2022-07-25T11:39:08;5.65;;;1.60;;
48203;SDS011;33994;50.998;5.864;2022-07-25T11:42:14;4.13;;;1.52;;
48203;SDS011;33994;50.998;5.864;2022-07-25T11:45:28;3.05;;;1.70;;
48203;SDS011;33994;50.998;5.864;2022-07-25T11:48:36;4.03;;;1.75;;
48203;SDS011;33994;50.998;5.864;2022-07-25T11:51:42;2.80;;;1.75;;
48203;SDS011;33994;50.998;5.864;2022-07-25T11:58:01;4.47;;;1.40;;
48203;SDS011;33994;50.998;5.864;2022-07-25T12:01:11;5.33;;;1.60;;
48203;SDS011;33994;50.998;5.864;2022-07-25T12:04:17;12.40;;;1.67;;
48203;SDS011;33994;50.998;5.864;2022-07-25T12:10:40;4.28;;;1.63;;
48203;SDS011;33994;50.998;5.864;2022-07-25T12:13:46;7.63;;;1.90;;
48203;SDS011;33994;50.998;5.864;2022-07-25T12:16:53;3.10;;;1.60;;
48203;SDS011;33994;50.998;5.864;2022-07-25T12:19:57;3.28;;;1.80;;
48203;SDS011;33994;50.998;5.864;2022-07-25T12:23:03;4.65;;;1.70;;
48203;SDS011;33994;50.998;5.864;2022-07-25T12:26:09;4.30;;;1.67;;
48203;SDS011;33994;50.998;5.864;2022-07-25T12:29:15;3.65;;;2.00;;
48203;SDS011;33994;50.998;5.864;2022-07-25T12:32:19;6.13;;;1.63;;
48203;SDS011;33994;50.998;5.864;2022-07-25T12:35:23;3.90;;;1.30;;
48203;SDS011;33994;50.998;5.864;2022-07-25T12:38:28;3.10;;;1.52;;
48203;SDS011;33994;50.998;5.864;2022-07-25T12:41:32;3.55;;;1.35;;
48203;SDS011;33994;50.998;5.864;2022-07-25T12:44:36;3.38;;;1.48;;
48203;SDS011;33994;50.998;5.864;2022-07-25T12:47:41;8.45;;;1.88;;
48203;SDS011;33994;50.998;5.864;2022-07-25T12:50:46;3.60;;;1.63;;
48203;SDS011;33994;50.998;5.864;2022-07-25T12:53:51;4.68;;;1.80;;
48203;SDS011;33994;50.998;5.864;2022-07-25T12:56:55;4.28;;;1.33;;
48203;SDS011;33994;50.998;5.864;2022-07-25T13:00:00;5.57;;;2.08;;
48203;SDS011;33994;50.998;5.864;2022-07-25T13:03:04;4.88;;;1.70;;
48203;SDS011;33994;50.998;5.864;2022-07-25T13:06:09;5.45;;;1.90;;
48203;SDS011;33994;50.998;5.864;2022-07-25T13:09:13;13.50;;;1.85;;
48203;SDS011;33994;50.998;5.864;2022-07-25T13:12:18;3.67;;;1.73;;
48203;SDS011;33994;50.998;5.864;2022-07-25T13:15:22;3.22;;;1.60;;
48203;SDS011;33994;50.998;5.864;2022-07-25T13:18:30;6.63;;;1.80;;
48203;SDS011;33994;50.998;5.864;2022-07-25T13:21:35;6.15;;;1.75;;
48203;SDS011;33994;50.998;5.864;2022-07-25T13:24:39;9.75;;;1.70;;
48203;SDS011;33994;50.998;5.864;2022-07-25T13:27:45;6.25;;;1.77;;
48203;SDS011;33994;50.998;5.864;2022-07-25T13:30:51;8.98;;;1.90;;
48203;SDS011;33994;50.998;5.864;2022-07-25T13:33:55;13.38;;;3.13;;
48203;SDS011;33994;50.998;5.864;2022-07-25T13:37:00;4.72;;;1.85;;
48203;SDS011;33994;50.998;5.864;2022-07-25T13:40:04;4.15;;;1.83;;
48203;SDS011;33994;50.998;5.864;2022-07-25T13:43:10;6.38;;;2.33;;
48203;SDS011;33994;50.998;5.864;2022-07-25T13:46:16;5.85;;;2.00;;
48203;SDS011;33994;50.998;5.864;2022-07-25T13:49:22;4.85;;;2.20;;
48203;SDS011;33994;50.998;5.864;2022-07-25T13:52:27;5.68;;;2.10;;
48203;SDS011;33994;50.998;5.864;2022-07-25T13:55:31;6.55;;;2.05;;
48203;SDS011;33994;50.998;5.864;2022-07-25T13:58:36;5.38;;;1.98;;
48203;SDS011;33994;50.998;5.864;2022-07-25T14:01:40;4.63;;;2.00;;
48203;SDS011;33994;50.998;5.864;2022-07-25T14:04:47;6.20;;;2.20;;
48203;SDS011;33994;50.998;5.864;2022-07-25T14:07:52;13.02;;;2.10;;
48203;SDS011;33994;50.998;5.864;2022-07-25T14:10:56;8.45;;;1.67;;
48203;SDS011;33994;50.998;5.864;2022-07-25T14:14:01;6.15;;;1.90;;
48203;SDS011;33994;50.998;5.864;2022-07-25T14:17:05;4.85;;;1.50;;
48203;SDS011;33994;50.998;5.864;2022-07-25T14:20:10;6.40;;;1.90;;
48203;SDS011;33994;50.998;5.864;2022-07-25T14:23:15;3.92;;;1.58;;
48203;SDS011;33994;50.998;5.864;2022-07-25T14:26:20;6.85;;;1.70;;
48203;SDS011;33994;50.998;5.864;2022-07-25T14:29:24;4.18;;;1.85;;
48203;SDS011;33994;50.998;5.864;2022-07-25T14:32:30;4.38;;;1.58;;
48203;SDS011;33994;50.998;5.864;2022-07-25T14:35:34;7.90;;;2.05;;
48203;SDS011;33994;50.998;5.864;2022-07-25T14:38:39;9.95;;;1.85;;
48203;SDS011;33994;50.998;5.864;2022-07-25T14:41:43;4.05;;;1.50;;
48203;SDS011;33994;50.998;5.864;2022-07-25T14:44:56;5.50;;;1.45;;
48203;SDS011;33994;50.998;5.864;2022-07-25T14:48:01;4.50;;;1.80;;
48203;SDS011;33994;50.998;5.864;2022-07-25T14:51:08;5.00;;;1.65;;
48203;SDS011;33994;50.998;5.864;2022-07-25T14:54:13;6.78;;;2.15;;
48203;SDS011;33994;50.998;5.864;2022-07-25T14:57:19;5.15;;;1.70;;
48203;SDS011;33994;50.998;5.864;2022-07-25T15:00:28;6.53;;;1.83;;
48203;SDS011;33994;50.998;5.864;2022-07-25T15:03:34;5.20;;;1.85;;
48203;SDS011;33994;50.998;5.864;2022-07-25T15:06:39;8.18;;;2.20;;
48203;SDS011;33994;50.998;5.864;2022-07-25T15:09:45;4.18;;;1.90;;
48203;SDS011;33994;50.998;5.864;2022-07-25T15:12:49;4.70;;;1.70;;
48203;SDS011;33994;50.998;5.864;2022-07-25T15:15:54;5.20;;;1.55;;
48203;SDS011;33994;50.998;5.864;2022-07-25T15:18:58;3.75;;;1.90;;
48203;SDS011;33994;50.998;5.864;2022-07-25T15:22:04;7.05;;;2.15;;
48203;SDS011;33994;50.998;5.864;2022-07-25T15:25:10;5.60;;;1.83;;
48203;SDS011;33994;50.998;5.864;2022-07-25T15:28:14;7.63;;;1.63;;
48203;SDS011;33994;50.998;5.864;2022-07-25T15:31:18;5.40;;;1.90;;
48203;SDS011;33994;50.998;5.864;2022-07-25T15:34:25;7.75;;;1.90;;
48203;SDS011;33994;50.998;5.864;2022-07-25T15:37:29;7.00;;;1.80;;
48203;SDS011;33994;50.998;5.864;2022-07-25T15:40:34;6.32;;;1.90;;
48203;SDS011;33994;50.998;5.864;2022-07-25T15:43:38;4.70;;;2.35;;
48203;SDS011;33994;50.998;5.864;2022-07-25T15:46:43;8.63;;;2.60;;
48203;SDS011;33994;50.998;5.864;2022-07-25T15:49:48;5.47;;;2.00;;
48203;SDS011;33994;50.998;5.864;2022-07-25T15:52:53;6.57;;;2.30;;
48203;SDS011;33994;50.998;5.864;2022-07-25T15:55:57;8.18;;;2.65;;
48203;SDS011;33994;50.998;5.864;2022-07-25T15:59:02;7.05;;;1.88;;
48203;SDS011;33994;50.998;5.864;2022-07-25T16:02:08;2.67;;;1.60;;
48203;SDS011;33994;50.998;5.864;2022-07-25T16:05:14;4.78;;;1.83;;
48203;SDS011;33994;50.998;5.864;2022-07-25T16:08:19;4.07;;;1.95;;
48203;SDS011;33994;50.998;5.864;2022-07-25T16:11:23;6.57;;;2.13;;
48203;SDS011;33994;50.998;5.864;2022-07-25T16:14:28;12.23;;;2.33;;
48203;SDS011;33994;50.998;5.864;2022-07-25T16:17:33;6.05;;;2.13;;
48203;SDS011;33994;50.998;5.864;2022-07-25T16:20:39;5.85;;;1.65;;
48203;SDS011;33994;50.998;5.864;2022-07-25T16:23:44;5.72;;;1.60;;
48203;SDS011;33994;50.998;5.864;2022-07-25T16:26:50;8.95;;;1.92;;
48203;SDS011;33994;50.998;5.864;2022-07-25T16:29:54;11.88;;;1.77;;
48203;SDS011;33994;50.998;5.864;2022-07-25T16:32:58;5.20;;;1.73;;
48203;SDS011;33994;50.998;5.864;2022-07-25T16:36:03;6.15;;;1.60;;
48203;SDS011;33994;50.998;5.864;2022-07-25T16:39:09;4.05;;;1.92;;
48203;SDS011;33994;50.998;5.864;2022-07-25T16:42:13;5.82;;;1.40;;
48203;SDS011;33994;50.998;5.864;2022-07-25T16:45:18;5.20;;;1.48;;
48203;SDS011;33994;50.998;5.864;2022-07-25T16:48:22;4.53;;;1.20;;
48203;SDS011;33994;50.998;5.864;2022-07-25T16:51:27;6.38;;;1.00;;
48203;SDS011;33994;50.998;5.864;2022-07-25T16:54:32;3.83;;;1.10;;
48203;SDS011;33994;50.998;5.864;2022-07-25T16:57:37;8.73;;;1.27;;
48203;SDS011;33994;50.998;5.864;2022-07-25T17:00:41;5.13;;;1.58;;
48203;SDS011;33994;50.998;5.864;2022-07-25T17:03:46;3.63;;;1.17;;
48203;SDS011;33994;50.998;5.864;2022-07-25T17:06:51;5.45;;;1.30;;
48203;SDS011;33994;50.998;5.864;2022-07-25T17:09:55;2.72;;;1.20;;
48203;SDS011;33994;50.998;5.864;2022-07-25T17:13:00;4.38;;;1.08;;
48203;SDS011;33994;50.998;5.864;2022-07-25T17:16:05;7.25;;;1.20;;
48203;SDS011;33994;50.998;5.864;2022-07-25T17:19:13;7.53;;;1.45;;
48203;SDS011;33994;50.998;5.864;2022-07-25T17:22:18;2.85;;;1.05;;
48203;SDS011;33994;50.998;5.864;2022-07-25T17:25:22;5.07;;;1.20;;
48203;SDS011;33994;50.998;5.864;2022-07-25T17:28:26;3.72;;;1.23;;
48203;SDS011;33994;50.998;5.864;2022-07-25T17:31:31;8.27;;;1.27;;
48203;SDS011;33994;50.998;5.864;2022-07-25T17:34:35;10.23;;;1.30;;
48203;SDS011;33994;50.998;5.864;2022-07-25T17:37:40;4.07;;;0.90;;
48203;SDS011;33994;50.998;5.864;2022-07-25T17:40:44;3.63;;;0.93;;
48203;SDS011;33994;50.998;5.864;2022-07-25T17:43:48;6.28;;;0.95;;
48203;SDS011;33994;50.998;5.864;2022-07-25T17:46:53;3.45;;;0.80;;
48203;SDS011;33994;50.998;5.864;2022-07-25T17:49:58;5.30;;;0.85;;
48203;SDS011;33994;50.998;5.864;2022-07-25T17:53:02;3.63;;;0.93;;
48203;SDS011;33994;50.998;5.864;2022-07-25T17:56:07;3.58;;;0.90;;
48203;SDS011;33994;50.998;5.864;2022-07-25T17:59:12;6.68;;;0.90;;
48203;SDS011;33994;50.998;5.864;2022-07-25T18:02:16;3.95;;;0.80;;
48203;SDS011;33994;50.998;5.864;2022-07-25T18:05:20;5.18;;;1.20;;
48203;SDS011;33994;50.998;5.864;2022-07-25T18:08:25;2.88;;;0.90;;
48203;SDS011;33994;50.998;5.864;2022-07-25T18:11:32;3.88;;;0.93;;
48203;SDS011;33994;50.998;5.864;2022-07-25T18:14:36;6.15;;;0.80;;
48203;SDS011;33994;50.998;5.864;2022-07-25T18:17:43;2.22;;;0.80;;
48203;SDS011;33994;50.998;5.864;2022-07-25T18:20:48;9.15;;;0.98;;
48203;SDS011;33994;50.998;5.864;2022-07-25T18:23:53;5.60;;;0.90;;
48203;SDS011;33994;50.998;5.864;2022-07-25T18:26:58;7.05;;;0.75;;
48203;SDS011;33994;50.998;5.864;2022-07-25T18:30:03;3.65;;;0.60;;
48203;SDS011;33994;50.998;5.864;2022-07-25T18:33:09;2.80;;;0.90;;
48203;SDS011;33994;50.998;5.864;2022-07-25T18:36:15;1.83;;;0.60;;
48203;SDS011;33994;50.998;5.864;2022-07-25T18:39:19;3.55;;;0.75;;
48203;SDS011;33994;50.998;5.864;2022-07-25T18:42:24;6.25;;;0.82;;
48203;SDS011;33994;50.998;5.864;2022-07-25T18:45:28;3.88;;;0.80;;
48203;SDS011;33994;50.998;5.864;2022-07-25T18:48:33;3.38;;;0.80;;
48203;SDS011;33994;50.998;5.864;2022-07-25T18:51:37;3.55;;;0.90;;
48203;SDS011;33994;50.998;5.864;2022-07-25T18:54:42;5.07;;;1.40;;